Terminal Aerodrome Forecast
Issued by NWS

Home | Current Version | Previous Version | Text Only | Print | Product List | Glossary On
Versions: 1 2 3 4 5 6 7 8 9 10 11 12 13 14 15
000
FTUS45 KVEF 272320
TAFBIH
TAF
KBIH 272320Z 2800/2824 16010G18KT P6SM FEW080 SCT140
     FM280400 33007KT P6SM SKC
     FM281900 16011KT P6SM FEW140=

USA.gov is the U.S. government's official web portal to all federal, state and local government web resources and services.